Time;durP1;ratioP1;P1;durP2;ratioP2;P2;SDS_P1;SDS_P2;PMS_P1;PMS_P2;Temp;Humidity;BMP_temperature;BMP_pressure;BME280_temperature;BME280_humidity;BME280_pressure;Samples;Min_cycle;Max_cycle;Signal;HPM_P1;HPM_P2
2021/08/20 00:00:26;;;;;;;12.05;9.52;;;16.80;86.60;;;;;;5074869;28;20483;-75
2021/08/20 00:02:51;;;;;;;10.23;9.23;;;16.80;86.60;;;;;;5056295;28;20032;-75
2021/08/20 00:05:17;;;;;;;10.45;8.93;;;16.80;86.60;;;;;;5056523;28;20023;-75
2021/08/20 00:07:42;;;;;;;10.13;8.80;;;16.80;86.60;;;;;;5056504;28;20103;-75
2021/08/20 00:10:09;;;;;;;10.15;9.07;;;16.70;86.60;;;;;;5074378;28;20108;-75
2021/08/20 00:12:35;;;;;;;10.15;8.80;;;16.70;86.60;;;;;;5056371;28;20513;-76
2021/08/20 00:15:00;;;;;;;10.15;9.13;;;16.70;86.60;;;;;;5074208;28;20036;-75
2021/08/20 00:17:27;;;;;;;9.50;8.50;;;16.70;86.60;;;;;;5073179;28;20037;-75
2021/08/20 00:19:53;;;;;;;9.10;8.23;;;16.70;86.60;;;;;;5056171;28;20028;-75
2021/08/20 00:22:18;;;;;;;9.35;8.13;;;16.70;86.70;;;;;;5056137;28;20028;-75
2021/08/20 00:24:44;;;;;;;9.48;8.57;;;16.60;86.70;;;;;;5056010;28;20044;-76
2021/08/20 00:27:10;;;;;;;10.48;8.80;;;16.60;86.80;;;;;;5056130;28;20020;-75
2021/08/20 00:32:58;;;;;;;9.25;8.30;;;16.40;86.90;;;;;;5074279;28;20031;-75
2021/08/20 00:35:23;;;;;;;12.18;8.88;;;16.40;86.90;;;;;;5056113;28;20112;-75
2021/08/20 00:37:49;;;;;;;9.65;8.75;;;16.40;87.00;;;;;;5073860;28;20035;-76
2021/08/20 00:40:15;;;;;;;10.18;8.70;;;16.40;87.00;;;;;;5055844;28;20028;-75
2021/08/20 00:42:41;;;;;;;9.55;8.45;;;16.40;87.00;;;;;;5055794;28;20085;-75
2021/08/20 00:45:07;;;;;;;9.30;8.32;;;16.30;87.00;;;;;;5055585;28;20468;-75
2021/08/20 00:47:32;;;;;;;9.75;8.75;;;16.30;87.10;;;;;;5055790;28;20028;-75
2021/08/20 00:50:02;;;;;;;9.15;7.80;;;16.30;87.10;;;;;;5073568;28;20025;-75
2021/08/20 00:52:28;;;;;;;9.60;7.78;;;16.30;87.10;;;;;;5055611;28;20503;-75
2021/08/20 00:54:53;;;;;;;11.25;8.20;;;16.30;87.10;;;;;;5055717;28;20017;-76
2021/08/20 00:57:19;;;;;;;8.93;8.02;;;16.30;87.10;;;;;;5055763;28;20106;-75
2021/08/20 00:59:46;;;;;;;8.50;7.60;;;16.30;87.20;;;;;;5055484;28;20154;-76
2021/08/20 01:02:12;;;;;;;9.52;8.00;;;16.30;87.10;;;;;;5055694;28;20019;-75
2021/08/20 01:04:37;;;;;;;8.32;7.53;;;16.30;87.10;;;;;;5055253;28;20032;-75
2021/08/20 01:07:03;;;;;;;9.07;8.18;;;16.30;87.10;;;;;;5055578;28;20024;-75
2021/08/20 01:09:29;;;;;;;9.02;8.13;;;16.30;87.10;;;;;;5055189;28;20074;-75
2021/08/20 01:11:54;;;;;;;11.30;8.18;;;16.30;87.10;;;;;;5055240;28;20031;-75
2021/08/20 01:14:31;;;;;;;9.55;8.50;;;16.30;87.00;;;;;;5055202;28;20023;-75
2021/08/20 01:16:58;;;;;;;8.80;7.88;;;16.30;87.00;;;;;;5055386;28;20025;-75
2021/08/20 01:19:23;;;;;;;8.57;7.55;;;16.30;86.90;;;;;;5088604;28;20059;-76
2021/08/20 01:21:50;;;;;;;9.93;7.93;;;16.40;86.90;;;;;;5055065;28;20034;-75
2021/08/20 01:24:16;;;;;;;9.43;7.78;;;16.30;86.90;;;;;;5072631;28;20041;-75
2021/08/20 01:26:41;;;;;;;10.30;7.45;;;16.30;86.80;;;;;;5054912;28;20092;-75
2021/08/20 01:29:07;;;;;;;9.05;7.65;;;16.30;86.80;;;;;;5054840;28;20387;-75
2021/08/20 01:31:32;;;;;;;12.43;7.65;;;16.30;86.80;;;;;;5072844;28;20052;-75
2021/08/20 01:33:58;;;;;;;9.27;7.63;;;16.30;86.80;;;;;;5054836;28;20024;-75
2021/08/20 01:36:24;;;;;;;9.05;7.68;;;16.30;86.80;;;;;;5054893;28;20035;-75
2021/08/20 01:38:55;;;;;;;9.80;7.65;;;16.30;86.80;;;;;;5054665;28;20472;-75
2021/08/20 01:41:23;;;;;;;8.10;7.30;;;16.30;86.70;;;;;;5088249;28;20033;-75
2021/08/20 01:43:49;;;;;;;8.43;7.63;;;16.30;86.70;;;;;;5072581;28;20028;-75
2021/08/20 01:46:15;;;;;;;8.75;7.47;;;16.20;86.60;;;;;;5054469;28;20017;-75
2021/08/20 01:48:55;;;;;;;8.75;7.35;;;16.20;86.70;;;;;;5072720;28;20095;-75
2021/08/20 01:51:22;;;;;;;8.18;7.35;;;16.20;87.30;;;;;;5088104;28;20133;-75
2021/08/20 01:53:48;;;;;;;9.93;7.65;;;16.20;86.70;;;;;;5054923;28;20031;-74
2021/08/20 01:56:19;;;;;;;9.40;7.03;;;16.20;86.70;;;;;;5054405;28;20039;-74
2021/08/20 01:58:46;;;;;;;9.68;7.68;;;16.20;86.70;;;;;;5088320;28;20024;-75
2021/08/20 02:01:13;;;;;;;8.75;7.53;;;16.20;86.80;;;;;;5072447;28;20136;-75
2021/08/20 02:03:39;;;;;;;9.13;7.68;;;16.10;86.70;;;;;;5054447;28;20393;-75
2021/08/20 02:06:05;;;;;;;9.63;7.72;;;16.10;86.80;;;;;;5072489;28;20082;-75
2021/08/20 02:08:30;;;;;;;9.40;8.38;;;16.10;86.80;;;;;;5072473;28;20480;-75
2021/08/20 02:10:56;;;;;;;8.52;7.40;;;16.00;86.90;;;;;;5054395;28;20111;-75
2021/08/20 02:13:22;;;;;;;8.95;8.02;;;16.00;86.90;;;;;;5072526;28;20031;-75
2021/08/20 02:15:48;;;;;;;9.07;7.38;;;16.00;87.00;;;;;;5054291;28;20013;-75
2021/08/20 02:18:15;;;;;;;9.25;7.50;;;16.00;87.00;;;;;;5054531;28;20353;-75
2021/08/20 02:20:41;;;;;;;8.32;7.43;;;16.00;86.80;;;;;;5054293;28;20028;-75
2021/08/20 02:23:07;;;;;;;8.07;7.28;;;16.10;86.80;;;;;;5053934;28;20032;-75
2021/08/20 02:25:33;;;;;;;8.32;7.45;;;16.10;86.70;;;;;;5054310;28;20020;-75
2021/08/20 02:27:59;;;;;;;7.60;6.72;;;16.10;86.60;;;;;;5054261;28;20078;-75
2021/08/20 02:30:24;;;;;;;12.20;8.10;;;16.20;86.60;;;;;;5054140;28;20369;-75
2021/08/20 02:32:50;;;;;;;8.25;7.40;;;16.20;86.50;;;;;;5054161;28;20021;-75
2021/08/20 02:35:16;;;;;;;8.10;7.30;;;16.30;86.40;;;;;;5054132;28;20020;-75
2021/08/20 02:37:41;;;;;;;8.50;7.28;;;16.30;86.30;;;;;;5072285;28;20028;-75
2021/08/20 02:40:08;;;;;;;8.80;7.78;;;16.30;86.30;;;;;;5074328;28;20028;-75
2021/08/20 02:42:33;;;;;;;8.45;7.28;;;16.30;86.20;;;;;;5058181;28;20419;-75
2021/08/20 02:44:59;;;;;;;8.18;7.35;;;16.30;86.20;;;;;;5057861;28;20032;-75
2021/08/20 02:47:25;;;;;;;8.07;7.28;;;16.30;86.10;;;;;;5075976;28;20388;-75
2021/08/20 02:49:50;;;;;;;8.80;7.70;;;16.40;86.10;;;;;;5057967;28;20051;-75
2021/08/20 02:52:16;;;;;;;9.15;7.55;;;16.30;86.10;;;;;;5075894;28;20046;-75
2021/08/20 02:54:41;;;;;;;9.63;7.30;;;16.30;86.10;;;;;;5057945;28;20056;-75
2021/08/20 02:57:07;;;;;;;8.90;7.45;;;16.30;86.10;;;;;;5057781;28;20030;-75
2021/08/20 02:59:33;;;;;;;10.20;7.78;;;16.30;86.10;;;;;;5075656;28;20089;-75
2021/08/20 03:01:58;;;;;;;8.35;7.55;;;16.30;86.10;;;;;;5057585;28;20384;-75
2021/08/20 03:04:25;;;;;;;8.88;7.97;;;16.30;86.00;;;;;;5057866;28;20036;-75
2021/08/20 03:06:53;;;;;;;9.68;7.22;;;16.30;86.00;;;;;;5091157;28;20025;-75
2021/08/20 03:09:20;;;;;;;10.90;7.75;;;16.30;86.60;;;;;;5057652;28;20020;-75
2021/08/20 03:11:47;;;;;;;10.43;7.63;;;16.30;85.90;;;;;;5057435;28;20025;-75
2021/08/20 03:14:12;;;;;;;9.02;8.10;;;16.30;85.90;;;;;;5075420;28;20028;-75
2021/08/20 03:16:38;;;;;;;10.45;8.60;;;16.40;86.00;;;;;;5057374;28;20027;-75
2021/08/20 03:19:04;;;;;;;9.00;8.10;;;16.40;85.90;;;;;;5075362;28;20024;-75
2021/08/20 03:21:29;;;;;;;10.38;8.43;;;16.40;85.90;;;;;;5057190;28;20078;-75
2021/08/20 03:23:56;;;;;;;9.77;8.45;;;16.40;86.00;;;;;;5057026;28;20053;-75
2021/08/20 03:26:22;;;;;;;10.35;8.20;;;16.40;85.90;;;;;;5075225;28;20013;-75
2021/08/20 03:28:49;;;;;;;9.35;8.45;;;16.40;85.90;;;;;;5075140;28;20528;-76
2021/08/20 03:31:14;;;;;;;9.05;7.85;;;16.40;85.90;;;;;;5075196;28;20017;-75
2021/08/20 03:33:40;;;;;;;9.80;8.57;;;16.40;85.90;;;;;;5075143;28;20027;-75
2021/08/20 03:36:06;;;;;;;10.32;9.23;;;16.40;85.90;;;;;;5056997;28;20112;-75
2021/08/20 03:38:31;;;;;;;12.40;9.32;;;16.40;85.90;;;;;;5057141;28;20070;-75
2021/08/20 03:40:57;;;;;;;11.82;9.73;;;16.40;85.90;;;;;;5056932;28;20028;-75
2021/08/20 03:43:22;;;;;;;12.05;9.02;;;16.50;86.00;;;;;;5074885;28;20480;-75
2021/08/20 03:45:48;;;;;;;9.18;8.27;;;16.40;85.90;;;;;;5074830;28;20475;-75
2021/08/20 03:48:13;;;;;;;12.02;8.95;;;16.40;86.00;;;;;;5056820;28;20033;-75
2021/08/20 03:50:39;;;;;;;12.73;8.52;;;16.40;86.00;;;;;;5074880;28;20021;-75
2021/08/20 03:53:05;;;;;;;10.30;9.20;;;16.40;86.00;;;;;;5056705;28;20025;-75
2021/08/20 03:55:30;;;;;;;11.95;9.13;;;16.40;86.00;;;;;;5074745;28;20108;-75
2021/08/20 03:57:56;;;;;;;10.30;9.15;;;16.50;86.10;;;;;;5074626;28;20480;-75
2021/08/20 04:00:21;;;;;;;10.43;8.95;;;16.50;86.10;;;;;;5056580;28;20032;-75
2021/08/20 04:02:47;;;;;;;10.85;8.93;;;16.50;86.10;;;;;;5074510;28;20029;-75
2021/08/20 04:05:13;;;;;;;10.43;9.35;;;16.50;86.10;;;;;;5074525;28;20034;-75
2021/08/20 04:07:38;;;;;;;13.55;9.63;;;16.50;86.10;;;;;;5056871;28;20051;-75
2021/08/20 04:10:05;;;;;;;12.18;9.93;;;16.50;86.10;;;;;;5056420;28;20398;-75
2021/08/20 04:12:30;;;;;;;12.50;8.95;;;16.50;86.10;;;;;;5089929;28;20035;-75
2021/08/20 04:14:56;;;;;;;12.27;10.05;;;16.50;86.20;;;;;;5074355;28;20021;-75
2021/08/20 04:17:21;;;;;;;11.82;9.82;;;16.50;86.10;;;;;;5056368;28;20016;-75
2021/08/20 04:19:47;;;;;;;10.85;9.52;;;16.50;86.20;;;;;;5074281;28;20020;-75
2021/08/20 04:22:13;;;;;;;10.75;9.57;;;16.50;86.20;;;;;;5056190;28;20024;-75
2021/08/20 04:24:41;;;;;;;10.95;9.25;;;16.50;86.20;;;;;;5056015;28;20043;-75
2021/08/20 04:27:08;;;;;;;12.18;9.15;;;16.60;86.30;;;;;;5056108;28;20055;-75
2021/08/20 04:29:34;;;;;;;14.00;9.27;;;16.60;86.30;;;;;;5089749;28;20024;-75
2021/08/20 04:31:59;;;;;;;10.70;9.60;;;16.50;86.30;;;;;;5055984;28;20082;-75
2021/08/20 04:34:25;;;;;;;14.77;10.18;;;16.50;86.30;;;;;;5055991;28;20120;-75
2021/08/20 04:36:51;;;;;;;12.90;10.18;;;16.50;86.30;;;;;;5074079;28;20094;-75
2021/08/20 04:39:17;;;;;;;11.40;9.23;;;16.50;86.40;;;;;;5055872;28;20082;-75
2021/08/20 04:41:42;;;;;;;11.68;9.45;;;16.50;86.40;;;;;;5055808;28;20025;-75
2021/08/20 04:44:08;;;;;;;11.98;10.15;;;16.50;86.40;;;;;;5055909;28;20031;-75
2021/08/20 04:46:34;;;;;;;13.20;9.68;;;16.60;86.50;;;;;;5073619;28;20472;-75
2021/08/20 04:48:59;;;;;;;11.13;9.65;;;16.60;86.50;;;;;;5055736;28;20024;-75
2021/08/20 04:51:25;;;;;;;12.00;9.43;;;16.60;86.50;;;;;;5055677;28;20478;-75
2021/08/20 04:53:51;;;;;;;11.38;10.00;;;16.60;86.50;;;;;;5055639;28;20017;-75
2021/08/20 04:56:17;;;;;;;11.27;9.80;;;16.60;86.50;;;;;;5055567;28;20027;-75
2021/08/20 04:58:42;;;;;;;10.55;9.35;;;16.60;86.50;;;;;;5073682;28;20071;-75
2021/08/20 05:01:10;;;;;;;11.95;9.60;;;16.60;86.50;;;;;;5055509;28;20487;-75
2021/08/20 05:03:35;;;;;;;10.40;9.30;;;16.60;86.50;;;;;;5088335;28;20055;-75
2021/08/20 05:06:01;;;;;;;12.35;10.75;;;16.60;86.50;;;;;;5055338;28;20103;-75
2021/08/20 05:08:27;;;;;;;10.88;9.65;;;16.60;86.50;;;;;;5055630;28;20020;-75
2021/08/20 05:10:53;;;;;;;12.18;9.70;;;16.60;86.50;;;;;;5073259;28;20354;-75
2021/08/20 05:13:18;;;;;;;11.93;10.25;;;16.60;86.60;;;;;;5055252;28;20082;-75
2021/08/20 05:15:44;;;;;;;13.82;9.80;;;16.60;86.60;;;;;;5055249;28;20056;-75
2021/08/20 05:18:09;;;;;;;13.60;9.93;;;16.60;86.60;;;;;;5073129;28;20103;-75
2021/08/20 05:20:35;;;;;;;12.43;10.05;;;16.60;86.70;;;;;;5055558;28;20552;-81
2021/08/20 05:23:00;;;;;;;14.00;10.38;;;16.60;86.60;;;;;;5072987;28;20491;-80
2021/08/20 05:25:31;;;;;;;9.93;8.77;;;16.60;86.60;;;;;;5055368;28;20024;-80
2021/08/20 05:27:56;;;;;;;11.00;9.77;;;16.60;86.70;;;;;;5055081;28;20017;-80
2021/08/20 05:30:22;;;;;;;10.15;8.45;;;16.70;86.70;;;;;;5055321;28;20020;-80
2021/08/20 05:32:47;;;;;;;11.80;9.35;;;16.70;86.70;;;;;;5073065;28;20059;-81
2021/08/20 05:35:14;;;;;;;11.40;9.88;;;16.70;86.70;;;;;;5055604;28;20025;-80
2021/08/20 05:37:40;;;;;;;12.77;9.93;;;16.70;86.70;;;;;;5088688;28;20028;-80
2021/08/20 05:40:07;;;;;;;12.50;9.68;;;16.70;86.80;;;;;;5073234;28;20483;-80
2021/08/20 05:42:33;;;;;;;13.13;9.77;;;16.70;86.80;;;;;;5055189;28;20024;-80
2021/08/20 05:44:58;;;;;;;12.38;9.30;;;16.70;86.80;;;;;;5054733;28;20032;-81
2021/08/20 05:47:24;;;;;;;12.50;9.32;;;16.70;86.80;;;;;;5072940;28;20023;-81
2021/08/20 05:49:50;;;;;;;10.82;9.70;;;16.70;86.70;;;;;;5054783;28;20078;-80
2021/08/20 05:52:17;;;;;;;11.10;9.63;;;16.80;86.80;;;;;;5055003;28;20062;-81
2021/08/20 05:54:43;;;;;;;12.23;10.00;;;16.80;86.90;;;;;;5054746;28;20476;-81
2021/08/20 05:57:09;;;;;;;11.90;9.60;;;16.80;86.80;;;;;;5055031;28;20073;-81
2021/08/20 05:59:34;;;;;;;12.75;9.57;;;16.80;86.80;;;;;;5073173;28;20138;-81
2021/08/20 06:02:00;;;;;;;12.77;9.77;;;16.90;86.90;;;;;;5054814;28;20028;-80
2021/08/20 06:04:26;;;;;;;12.70;9.35;;;16.90;86.70;;;;;;5054877;28;20032;-80
2021/08/20 06:06:52;;;;;;;11.05;9.32;;;16.90;86.70;;;;;;5072694;28;20036;-80
2021/08/20 06:09:17;;;;;;;11.13;9.07;;;17.00;86.70;;;;;;5055120;28;20023;-80
2021/08/20 06:11:43;;;;;;;11.43;9.07;;;17.00;86.70;;;;;;5055325;28;20389;-81
2021/08/20 06:14:08;;;;;;;14.05;10.05;;;17.10;86.70;;;;;;5055719;28;20027;-80
2021/08/20 06:16:34;;;;;;;12.20;9.07;;;17.10;86.60;;;;;;5059189;28;20029;-80
2021/08/20 06:18:59;;;;;;;11.80;8.93;;;17.10;86.60;;;;;;5076928;28;20032;-80
2021/08/20 06:21:25;;;;;;;11.02;8.95;;;17.10;86.60;;;;;;5058927;28;20063;-80
2021/08/20 06:23:51;;;;;;;11.80;9.95;;;17.10;86.60;;;;;;5076517;28;20056;-79
2021/08/20 06:26:16;;;;;;;13.05;9.32;;;17.10;86.50;;;;;;5058546;28;20036;-79
2021/08/20 06:28:42;;;;;;;11.23;9.00;;;17.20;86.60;;;;;;5076639;28;20021;-81
2021/08/20 06:31:07;;;;;;;10.73;8.75;;;17.20;86.60;;;;;;5058993;28;20027;-80
2021/08/20 06:33:34;;;;;;;11.52;8.88;;;17.30;86.60;;;;;;5076652;28;20476;-81
2021/08/20 06:36:01;;;;;;;10.98;8.70;;;17.30;86.50;;;;;;5058787;28;20112;-81
2021/08/20 06:38:27;;;;;;;11.18;9.02;;;17.30;86.50;;;;;;5058482;28;20052;-81
2021/08/20 06:40:52;;;;;;;10.95;8.77;;;17.40;86.50;;;;;;5058577;28;20400;-81
2021/08/20 06:43:19;;;;;;;10.23;8.05;;;17.40;86.50;;;;;;5058441;28;20020;-81
2021/08/20 06:45:44;;;;;;;10.05;8.35;;;17.50;86.40;;;;;;5092022;28;20067;-80
2021/08/20 06:48:10;;;;;;;10.63;8.10;;;17.60;86.30;;;;;;5057959;28;20465;-80
2021/08/20 06:50:36;;;;;;;9.65;8.30;;;17.70;86.20;;;;;;5058346;28;20017;-80
2021/08/20 06:53:01;;;;;;;10.15;8.07;;;17.80;86.00;;;;;;5076082;28;20016;-80
2021/08/20 06:55:32;;;;;;;10.15;8.07;;;17.90;85.90;;;;;;5058357;28;20077;-80
2021/08/20 06:57:57;;;;;;;9.68;7.95;;;18.00;85.80;;;;;;5058147;28;20044;-80
2021/08/20 07:00:23;;;;;;;9.15;7.57;;;18.10;85.60;;;;;;5058012;28;20031;-80
2021/08/20 07:02:48;;;;;;;9.43;7.68;;;18.10;85.40;;;;;;5057813;28;20046;-74
2021/08/20 07:05:15;;;;;;;8.30;7.15;;;18.10;85.40;;;;;;5075628;28;20373;-73
2021/08/20 07:07:41;;;;;;;7.65;6.85;;;18.10;85.40;;;;;;5057617;28;20032;-74
2021/08/20 07:10:17;;;;;;;8.05;7.25;;;18.10;85.50;;;;;;5057470;28;20039;-73
2021/08/20 07:12:44;;;;;;;7.53;6.60;;;18.10;85.60;;;;;;5057663;28;20476;-74
2021/08/20 07:15:11;;;;;;;10.85;7.95;;;18.10;85.60;;;;;;5075425;28;20017;-73
2021/08/20 07:17:37;;;;;;;7.82;7.03;;;18.10;85.50;;;;;;5075402;28;20469;-73
2021/08/20 07:20:04;;;;;;;8.80;7.38;;;18.10;85.40;;;;;;5057428;28;20054;-73
2021/08/20 07:22:30;;;;;;;8.98;7.70;;;18.20;85.40;;;;;;5075271;28;20024;-73
2021/08/20 07:24:56;;;;;;;9.30;7.82;;;18.30;85.40;;;;;;5056818;28;20045;-73
2021/08/20 07:27:22;;;;;;;9.32;7.60;;;18.30;85.20;;;;;;5075181;28;20035;-73
2021/08/20 07:29:48;;;;;;;7.68;6.88;;;18.40;85.20;;;;;;5057174;28;20383;-73
2021/08/20 07:32:14;;;;;;;7.63;6.63;;;18.50;85.20;;;;;;5075373;28;20070;-73
2021/08/20 07:34:40;;;;;;;6.88;6.05;;;18.50;85.00;;;;;;5057088;28;20025;-73
2021/08/20 07:37:06;;;;;;;8.73;7.22;;;18.60;84.90;;;;;;5057039;28;20456;-73
2021/08/20 07:39:32;;;;;;;7.70;6.50;;;18.70;84.90;;;;;;5057020;28;20388;-73
2021/08/20 07:41:59;;;;;;;8.02;6.93;;;18.70;84.80;;;;;;5056968;28;20390;-73
2021/08/20 07:44:25;;;;;;;10.40;7.40;;;18.80;84.80;;;;;;5074744;28;20388;-73
2021/08/20 07:46:51;;;;;;;7.75;6.95;;;18.80;84.70;;;;;;5074853;28;20040;-74
2021/08/20 07:49:17;;;;;;;7.85;7.05;;;18.80;84.60;;;;;;5056891;28;20021;-73
2021/08/20 07:51:43;;;;;;;7.78;6.97;;;18.80;84.60;;;;;;5056875;28;20047;-73
2021/08/20 07:54:09;;;;;;;8.40;7.55;;;18.70;84.70;;;;;;5056650;28;20031;-73
2021/08/20 07:56:35;;;;;;;8.82;7.20;;;18.70;84.70;;;;;;5074694;28;20426;-73
2021/08/20 07:59:00;;;;;;;8.45;7.28;;;18.70;84.80;;;;;;5057014;28;20020;-73
2021/08/20 08:01:26;;;;;;;8.70;7.38;;;18.70;84.70;;;;;;5056561;28;20017;-73
2021/08/20 08:03:57;;;;;;;9.05;8.07;;;18.80;84.70;;;;;;5056467;28;20078;-73
2021/08/20 08:06:26;;;;;;;7.93;7.15;;;18.90;84.60;;;;;;5074870;28;20043;-80
2021/08/20 08:08:51;;;;;;;8.48;7.68;;;19.00;84.50;;;;;;5090348;28;20023;-80
2021/08/20 08:11:17;;;;;;;9.85;8.73;;;19.10;84.40;;;;;;5056634;28;20390;-79
2021/08/20 08:13:43;;;;;;;9.77;8.73;;;19.10;84.20;;;;;;5056725;28;20035;-80
2021/08/20 08:16:09;;;;;;;9.50;8.60;;;19.10;84.20;;;;;;5074648;28;20153;-80
2021/08/20 08:18:34;;;;;;;7.65;6.95;;;19.20;84.30;;;;;;5056661;28;20086;-79
2021/08/20 08:21:00;;;;;;;8.18;7.38;;;19.20;84.10;;;;;;5074369;28;20028;-79
2021/08/20 08:23:27;;;;;;;9.15;8.10;;;19.30;84.10;;;;;;5074037;28;20349;-80
2021/08/20 08:25:53;;;;;;;8.55;7.70;;;19.30;84.00;;;;;;5074621;28;20025;-80
2021/08/20 08:28:21;;;;;;;8.55;7.70;;;19.30;84.00;;;;;;5056920;28;20017;-80
2021/08/20 08:30:48;;;;;;;8.27;7.38;;;19.30;83.90;;;;;;5056759;28;20541;-80
2021/08/20 08:33:15;;;;;;;7.90;7.07;;;19.30;83.90;;;;;;5056942;28;20025;-80
2021/08/20 08:35:41;;;;;;;8.55;7.68;;;19.40;83.90;;;;;;5074162;28;20029;-80
2021/08/20 08:38:12;;;;;;;8.00;7.20;;;19.60;84.40;;;;;;5055377;28;20403;-80
2021/08/20 08:40:46;;;;;;;6.57;5.97;;;19.80;83.50;;;;;;5056035;28;20111;-80
2021/08/20 08:43:12;;;;;;;7.05;6.38;;;20.00;83.30;;;;;;5056045;28;20052;-79
2021/08/20 08:45:39;;;;;;;7.00;6.32;;;20.10;83.00;;;;;;5055565;28;20024;-79
2021/08/20 08:48:10;;;;;;;7.50;6.80;;;20.20;82.80;;;;;;5073738;28;20052;-80
2021/08/20 08:50:37;;;;;;;7.45;6.75;;;20.30;82.50;;;;;;5073706;28;20029;-81
2021/08/20 08:53:03;;;;;;;7.32;6.50;;;20.30;82.30;;;;;;5056323;28;20021;-81
2021/08/20 08:55:29;;;;;;;7.00;6.30;;;20.40;82.10;;;;;;5055593;28;20552;-81
2021/08/20 08:57:54;;;;;;;7.60;6.10;;;20.50;82.60;;;;;;5073503;28;20103;-80
2021/08/20 09:00:39;;;;;;;6.30;5.70;;;20.60;82.40;;;;;;5055832;28;20039;-80
2021/08/20 09:03:06;;;;;;;6.68;5.93;;;20.80;81.50;;;;;;5055363;28;20028;-82
2021/08/20 09:09:07;;;;;;;6.90;6.28;;;20.90;80.80;;;;;;5073831;28;20043;-80
2021/08/20 09:11:32;;;;;;;7.05;5.75;;;20.90;80.70;;;;;;5073501;28;20030;-79
2021/08/20 09:13:58;;;;;;;6.78;6.18;;;20.90;80.80;;;;;;5073444;28;20103;-79
2021/08/20 09:16:37;;;;;;;8.00;7.25;;;20.80;80.50;;;;;;5055379;28;20028;-80
2021/08/20 09:19:09;;;;;;;8.65;7.00;;;20.80;80.00;;;;;;5088985;28;20392;-81
2021/08/20 09:21:34;;;;;;;7.65;6.65;;;20.80;79.90;;;;;;5055152;28;20032;-80
2021/08/20 09:24:01;;;;;;;6.90;6.30;;;20.70;79.80;;;;;;5055275;28;20052;-79
2021/08/20 09:26:27;;;;;;;8.48;7.35;;;20.70;79.70;;;;;;5073137;28;20067;-78
2021/08/20 09:29:09;;;;;;;7.00;6.40;;;20.70;79.50;;;;;;5055019;28;20056;-80
2021/08/20 09:31:49;;;;;;;6.30;5.70;;;20.60;79.70;;;;;;5073667;28;20392;-85
2021/08/20 09:37:37;;;;;;;6.15;5.53;;;20.70;79.80;;;;;;5073267;28;20028;-79
2021/08/20 09:40:10;;;;;;;6.93;6.32;;;20.80;79.80;;;;;;5072861;28;20388;-79
2021/08/20 09:42:36;;;;;;;6.80;6.20;;;20.80;79.40;;;;;;5054803;28;20032;-78
2021/08/20 09:45:12;;;;;;;6.57;5.88;;;20.90;79.40;;;;;;5054970;28;20425;-72
2021/08/20 09:47:49;;;;;;;6.80;6.20;;;21.10;79.40;;;;;;5072850;28;20431;-73
2021/08/20 09:50:16;;;;;;;6.40;5.80;;;21.20;79.20;;;;;;5054863;28;20040;-73
2021/08/20 09:52:42;;;;;;;6.00;5.50;;;21.20;79.10;;;;;;5054768;28;20115;-73
2021/08/20 09:55:08;;;;;;;6.50;5.85;;;21.40;78.90;;;;;;5054600;28;20126;-73
2021/08/20 09:57:37;;;;;;;6.82;5.75;;;21.40;78.80;;;;;;5072894;28;20043;-73
2021/08/20 10:00:08;;;;;;;6.70;5.80;;;21.50;78.40;;;;;;5072399;28;20021;-73
2021/08/20 10:02:37;;;;;;;6.97;6.28;;;21.50;77.90;;;;;;5072478;28;20024;-72
2021/08/20 10:05:03;;;;;;;5.78;5.25;;;21.40;77.70;;;;;;5072483;28;20099;-72
2021/08/20 10:07:31;;;;;;;7.47;6.25;;;21.40;77.80;;;;;;5054435;28;20029;-73
2021/08/20 10:10:00;;;;;;;6.45;5.75;;;21.50;77.60;;;;;;5072392;28;20480;-73
2021/08/20 10:12:26;;;;;;;7.00;6.03;;;21.60;77.50;;;;;;5072388;28;20028;-73
2021/08/20 10:14:53;;;;;;;6.03;5.45;;;21.60;77.30;;;;;;5054573;28;20538;-73
2021/08/20 10:17:20;;;;;;;7.72;6.05;;;21.70;77.10;;;;;;5054207;28;20031;-73
2021/08/20 10:19:51;;;;;;;7.53;6.82;;;21.60;76.90;;;;;;5072135;28;20107;-73
2021/08/20 10:22:20;;;;;;;6.15;5.55;;;21.60;76.70;;;;;;5072384;28;20544;-73
2021/08/20 10:24:46;;;;;;;5.55;5.05;;;21.60;76.70;;;;;;5054206;28;20449;-73
2021/08/20 10:27:16;;;;;;;6.20;5.20;;;21.50;76.80;;;;;;5054379;28;20039;-74
2021/08/20 10:29:47;;;;;;;4.72;4.32;;;21.50;76.90;;;;;;5054397;28;20025;-72
2021/08/20 10:32:16;;;;;;;6.57;5.55;;;21.50;76.90;;;;;;5072233;28;20478;-72
2021/08/20 10:34:43;;;;;;;6.43;4.78;;;21.50;76.50;;;;;;5072240;28;20104;-72
2021/08/20 10:37:17;;;;;;;6.88;5.75;;;21.50;76.70;;;;;;5072256;28;20107;-72
2021/08/20 10:39:51;;;;;;;6.85;5.70;;;21.50;76.30;;;;;;5054523;28;20021;-72
2021/08/20 10:42:19;;;;;;;7.22;5.50;;;21.60;76.30;;;;;;5087694;28;20366;-72
2021/08/20 10:44:47;;;;;;;5.43;4.93;;;21.60;76.10;;;;;;5072150;28;20036;-72
2021/08/20 10:47:23;;;;;;;4.22;3.72;;;21.70;76.10;;;;;;5054109;28;20456;-72
2021/08/20 10:49:50;;;;;;;4.90;4.05;;;21.80;75.80;;;;;;5054037;28;20021;-72
2021/08/20 10:52:33;;;;;;;4.57;4.03;;;21.90;75.50;;;;;;5087603;28;20029;-72
2021/08/20 10:54:59;;;;;;;4.63;3.80;;;21.90;75.20;;;;;;5054141;28;20412;-72
2021/08/20 10:57:41;;;;;;;3.63;3.33;;;21.90;75.20;;;;;;5072164;28;20032;-73
2021/08/20 11:00:21;;;;;;;3.42;3.13;;;21.90;75.10;;;;;;5072544;28;20453;-72
2021/08/20 11:02:49;;;;;;;5.05;3.58;;;21.80;75.00;;;;;;5075603;28;20029;-73
2021/08/20 11:05:15;;;;;;;4.65;4.07;;;21.80;74.70;;;;;;5075617;28;20060;-73
2021/08/20 11:07:47;;;;;;;4.82;4.25;;;21.90;74.60;;;;;;5075727;28;20024;-72
2021/08/20 11:10:12;;;;;;;4.72;3.90;;;21.90;74.20;;;;;;5057579;28;20100;-73
2021/08/20 11:12:46;;;;;;;4.00;3.50;;;21.90;74.20;;;;;;5057551;28;20106;-73
2021/08/20 11:15:21;;;;;;;3.63;3.17;;;21.90;74.00;;;;;;5057489;28;20480;-73
2021/08/20 11:18:07;;;;;;;3.33;3.00;;;22.00;73.90;;;;;;5057517;28;20032;-73
2021/08/20 11:20:38;;;;;;;3.60;3.30;;;22.00;73.90;;;;;;5075328;28;20055;-73
2021/08/20 11:23:12;;;;;;;3.20;2.80;;;22.00;73.70;;;;;;5057573;28;20028;-73
2021/08/20 11:25:48;;;;;;;3.13;2.83;;;22.00;73.60;;;;;;5057309;28;20028;-73
2021/08/20 11:28:18;;;;;;;2.83;2.53;;;22.00;73.30;;;;;;5090934;28;20131;-73
2021/08/20 11:31:05;;;;;;;2.45;2.25;;;22.00;73.10;;;;;;5075161;28;20025;-73
2021/08/20 11:33:33;;;;;;;2.58;2.25;;;22.10;72.70;;;;;;5057172;28;20029;-73
2021/08/20 11:36:04;;;;;;;2.60;2.10;;;22.30;72.50;;;;;;5075021;28;20037;-73
2021/08/20 11:38:42;;;;;;;3.20;2.20;;;22.40;72.00;;;;;;5075333;28;20514;-73
2021/08/20 11:41:13;;;;;;;3.03;2.72;;;22.60;71.50;;;;;;5074989;28;20499;-73
2021/08/20 11:43:46;;;;;;;2.85;2.60;;;22.70;71.20;;;;;;5074769;28;20082;-73
2021/08/20 11:46:12;;;;;;;;;;;22.90;70.80;;;;;;5075355;28;20021;-73
2021/08/20 11:49:05;;;;;;;3.42;3.13;;;22.90;70.80;;;;;;5056619;28;19909;-73
2021/08/20 11:51:36;;;;;;;3.17;2.87;;;22.90;70.60;;;;;;5053733;28;20492;-73
2021/08/20 11:54:07;;;;;;;3.45;3.15;;;22.90;70.50;;;;;;5056786;28;20031;-72
2021/08/20 11:56:33;;;;;;;3.35;3.05;;;22.90;70.00;;;;;;5074924;28;20037;-73
2021/08/20 11:59:10;;;;;;;3.45;3.03;;;22.80;69.80;;;;;;5056592;28;20051;-73
2021/08/20 12:01:38;;;;;;;3.28;2.83;;;22.80;69.90;;;;;;5056598;28;20101;-73
2021/08/20 12:04:04;;;;;;;3.55;2.50;;;22.80;69.60;;;;;;5056449;28;20029;-72
2021/08/20 12:06:31;;;;;;;3.13;2.83;;;22.80;69.60;;;;;;5056542;28;20534;-72
2021/08/20 12:09:11;;;;;;;3.80;3.40;;;22.80;69.60;;;;;;5056527;28;20031;-73
2021/08/20 12:11:37;;;;;;;4.05;3.33;;;22.80;69.70;;;;;;5055848;28;20098;-73
2021/08/20 12:14:03;;;;;;;3.83;3.42;;;22.80;69.80;;;;;;5056237;28;20079;-72
2021/08/20 12:16:36;;;;;;;4.95;3.80;;;22.80;69.80;;;;;;5089792;28;20063;-73
2021/08/20 12:19:13;;;;;;;;;;;22.80;69.60;;;;;;5056695;28;20381;-73
2021/08/20 12:21:38;;;;;;;3.38;3.08;;;22.90;70.00;;;;;;5056226;28;19912;-73
2021/08/20 12:24:05;;;;;;;3.40;3.08;;;22.90;70.00;;;;;;5073962;28;20098;-73
2021/08/20 12:26:31;;;;;;;4.68;3.28;;;22.90;70.00;;;;;;5074162;28;20570;-73
2021/08/20 12:28:58;;;;;;;4.25;3.80;;;22.80;69.90;;;;;;5074088;28;20020;-73
2021/08/20 12:31:25;;;;;;;5.38;4.32;;;22.80;69.80;;;;;;5074041;28;20090;-72
2021/08/20 12:33:58;;;;;;;4.75;4.13;;;22.90;69.70;;;;;;5073943;28;20111;-73
2021/08/20 12:36:24;;;;;;;5.20;4.03;;;22.90;69.30;;;;;;5073968;28;20020;-73
2021/08/20 12:39:12;;;;;;;4.70;4.30;;;23.00;69.30;;;;;;5073837;28;20050;-73
2021/08/20 12:41:40;;;;;;;3.72;3.42;;;23.00;69.10;;;;;;5055716;28;20398;-73
2021/08/20 12:44:07;;;;;;;4.38;3.50;;;23.10;69.30;;;;;;5073584;28;20113;-73
2021/08/20 12:46:42;;;;;;;4.53;3.80;;;23.20;69.30;;;;;;5056050;28;20051;-73
2021/08/20 12:49:08;;;;;;;4.78;3.70;;;23.40;69.00;;;;;;5073678;28;20396;-72
2021/08/20 12:51:36;;;;;;;5.10;4.45;;;23.50;68.90;;;;;;5055698;28;20032;-73
2021/08/20 12:54:19;;;;;;;4.57;4.03;;;23.60;68.10;;;;;;5073888;28;20114;-73